• Join FlightAware (Why Join?)
  • Login
  • US Flag 
03:03AM EDT


 

Airport Tracker/Info


-or-


 

Live Flight TrackerFlight Track Log ✈ KAP5 ✈ 23-Jun-2013 ✈ KALB - KBOS

Flight Track Log - Related Links

Times and Time Zones

All times are in EDT time to prevent confusion due to time zone crossing. See the KAP5 flight status page for this flight to view local times or setup timezone preferences in your user account.

Time Position Orientation Groundspeed Altitude Reporting Facility
EDT Latitude Longitude Course Direction KTS MPH feet Rate Location/Type
02:47PM 42.7156 -73.7794 134° Southeast 100 115 1,500  Level Boston Center
02:48PM 42.6931 -73.7481 134° Southeast 118 136 2,400 840 Climbing Boston Center
02:49PM 42.6872 -73.7083 101° East 140 161 3,200 780 Climbing Boston Center
02:50PM 42.7003 -73.6606 70° East 142 163 4,000 840 Climbing Boston Center
02:51PM 42.7111 -73.6128 73° East 137 158 5,000 900 Climbing Boston Center
02:52PM 42.7306 -73.5594 64° Northeast 143 165 5,900 720 Climbing Boston Center
02:53PM 42.7456 -73.5058 69° East 146 168 6,500 540 Climbing Boston Center
02:54PM 42.7544 -73.4553 77° East 137 158 7,000 540 Climbing Boston Center
02:55PM 42.7694 -73.4075 67° East 135 155 7,600 600 Climbing Boston Center
02:56PM 42.7781 -73.3678 74° East 143 165 8,100 540 Climbing Boston Center
02:57PM 42.7700 -73.3253 104° East 140 161 8,600 420 Climbing Boston Center
02:58PM 42.7600 -73.2686 103° East 140 161 9,000 180 Climbing Boston Center
02:59PM 42.7500 -73.2147 104° East 155 178 9,000  Level Boston Center
03:00PM 42.7442 -73.1611 98° East 169 194 9,000  Level Boston Center
03:01PM 42.7300 -73.0789 103° East 185 213 9,000  Level Boston Center
03:02PM 42.7219 -73.0250 101° East 185 213 9,000  Level Boston Center
03:03PM 42.7119 -72.9600 102° East 180 207 9,000  Level Boston Center
03:04PM 42.6975 -72.8694 102° East 180 207 9,000  Level Boston Center
03:05PM 42.6853 -72.8044 104° East 180 207 9,000  Level Boston Center
03:06PM 42.6731 -72.7367 104° East 180 207 9,000  Level Boston Center
03:07PM 42.6731 -72.6689 90° East 180 207 9,000  Level Boston Center
03:08PM 42.6650 -72.6039 100° East 180 207 9,000  Level Boston Center
03:09PM 42.6589 -72.5389 97° East 180 207 9,000  Level Boston Center
03:10PM 42.6464 -72.4739 105° East 180 207 9,000  Level Boston Center
03:11PM 42.6317 -72.4033 106° East 180 207 9,000  Level Boston Center
03:12PM 42.6150 -72.3386 109° East 185 213 9,000  Level Boston Center
03:13PM 42.5983 -72.2681 108° East 185 213 9,000  Level Boston Center
03:14PM 42.5794 -72.1919 109° East 190 219 9,000  Level Boston Center
03:15PM 42.5625 -72.1356 112° Southeast 190 219 9,000  Level Boston Center
03:16PM 42.5497 -72.0567 102° East 190 219 9,000  Level Boston Center
03:17PM 42.5414 -71.9950 100° East 185 213 9,000  Level Boston Center
03:18PM 42.5347 -71.9189 97° East 185 213 9,000  Level Boston Center
03:19PM 42.5303 -71.8542 95° East 185 213 9,000  Level Boston Center
03:20PM 42.5214 -71.7781 99° East 180 207 9,000  Level Boston Center
03:21PM 42.5231 -71.7047 88° East 180 207 9,000  Level Boston Center
03:22PM 42.5308 -71.6372 81° East 180 207 9,000  Level Boston Center
03:23PM 42.5333 -71.5667 87° East 190 219 9,000 -300 Level KA90
03:24PM 42.5500 -71.4833 75° East 206 237 8,400 -660 Descending KA90
03:25PM 42.5500 -71.4000 90° East 213 245 7,700 -720 Descending KA90
03:26PM 42.5500 -71.3167 90° East 215 247 7,000 -780 Descending KA90
03:27PM 42.5667 -71.2500 71° East 213 245 6,300 -900 Descending KA90
03:28PM 42.5667 -71.1667 90° East 215 247 5,200 -960 Descending KA90
03:29PM 42.5833 -71.0833 75° East 214 246 4,400 -840 Descending KA90
03:30PM 42.5833 -71.0167 90° East 211 243 3,700 -720 Descending KA90
03:31PM 42.5500 -70.9500 124° Southeast 179 206 3,000 -540 Descending KA90
03:32PM 42.5000 -70.9500 180° South 165 190 2,600 -540 Descending KA90
03:33PM 42.4500 -70.9667 194° South 164 189 2,000 -840 Descending KA90
03:34PM 42.4167 -70.9833 200° South 155 178 1,000 -900 Descending KA90
03:35PM 42.3833 -71.0000 200° South 129 148 200 -840 Descending KA90
03:37PM 42.3630 -71.0064 270° West  Level Estimated